sensor_id;sensor_type;location;lat;lon;timestamp;P1;durP1;ratioP1;P2;durP2;ratioP2
64052;SDS011;50299;49.524;8.536;2023-02-04T00:02:02;4.63;;;2.13;;
64052;SDS011;50299;49.524;8.536;2023-02-04T00:04:29;4.30;;;2.30;;
64052;SDS011;50299;49.524;8.536;2023-02-04T00:06:55;5.82;;;2.05;;
64052;SDS011;50299;49.524;8.536;2023-02-04T00:09:21;5.30;;;2.25;;
64052;SDS011;50299;49.524;8.536;2023-02-04T00:11:48;3.90;;;2.20;;
64052;SDS011;50299;49.524;8.536;2023-02-04T00:14:14;3.38;;;2.05;;
64052;SDS011;50299;49.524;8.536;2023-02-04T00:19:10;3.72;;;1.92;;
64052;SDS011;50299;49.524;8.536;2023-02-04T00:21:36;8.05;;;2.60;;
64052;SDS011;50299;49.524;8.536;2023-02-04T00:24:02;6.78;;;2.50;;
64052;SDS011;50299;49.524;8.536;2023-02-04T00:26:29;3.75;;;2.33;;
64052;SDS011;50299;49.524;8.536;2023-02-04T00:28:55;4.70;;;2.47;;
64052;SDS011;50299;49.524;8.536;2023-02-04T00:31:21;5.00;;;2.88;;
64052;SDS011;50299;49.524;8.536;2023-02-04T00:33:48;5.25;;;2.33;;
64052;SDS011;50299;49.524;8.536;2023-02-04T00:36:15;6.53;;;2.42;;
64052;SDS011;50299;49.524;8.536;2023-02-04T00:38:41;5.28;;;2.60;;
64052;SDS011;50299;49.524;8.536;2023-02-04T00:41:07;4.38;;;2.33;;
64052;SDS011;50299;49.524;8.536;2023-02-04T00:43:34;4.35;;;2.25;;
64052;SDS011;50299;49.524;8.536;2023-02-04T00:46:00;3.25;;;2.95;;
64052;SDS011;50299;49.524;8.536;2023-02-04T00:48:26;4.68;;;2.28;;
64052;SDS011;50299;49.524;8.536;2023-02-04T00:50:53;4.13;;;2.65;;
64052;SDS011;50299;49.524;8.536;2023-02-04T00:53:20;7.57;;;2.40;;
64052;SDS011;50299;49.524;8.536;2023-02-04T00:55:46;4.30;;;2.25;;
64052;SDS011;50299;49.524;8.536;2023-02-04T00:58:12;4.88;;;3.13;;
64052;SDS011;50299;49.524;8.536;2023-02-04T01:00:39;5.18;;;2.20;;
64052;SDS011;50299;49.524;8.536;2023-02-04T01:03:05;5.13;;;2.05;;
64052;SDS011;50299;49.524;8.536;2023-02-04T01:05:32;6.07;;;2.67;;
64052;SDS011;50299;49.524;8.536;2023-02-04T01:07:58;5.22;;;2.45;;
64052;SDS011;50299;49.524;8.536;2023-02-04T01:10:24;4.55;;;2.28;;
64052;SDS011;50299;49.524;8.536;2023-02-04T01:12:51;8.30;;;2.38;;
64052;SDS011;50299;49.524;8.536;2023-02-04T01:15:18;3.85;;;2.28;;
64052;SDS011;50299;49.524;8.536;2023-02-04T01:17:44;8.15;;;2.55;;
64052;SDS011;50299;49.524;8.536;2023-02-04T01:20:10;5.07;;;2.60;;
64052;SDS011;50299;49.524;8.536;2023-02-04T01:22:37;4.53;;;2.72;;
64052;SDS011;50299;49.524;8.536;2023-02-04T01:25:03;10.35;;;3.00;;
64052;SDS011;50299;49.524;8.536;2023-02-04T01:27:30;7.55;;;3.53;;
64052;SDS011;50299;49.524;8.536;2023-02-04T01:29:57;10.93;;;2.60;;
64052;SDS011;50299;49.524;8.536;2023-02-04T01:32:23;6.10;;;2.45;;
64052;SDS011;50299;49.524;8.536;2023-02-04T01:34:50;10.48;;;2.70;;
64052;SDS011;50299;49.524;8.536;2023-02-04T01:37:16;6.75;;;2.83;;
64052;SDS011;50299;49.524;8.536;2023-02-04T01:39:43;9.68;;;2.53;;
64052;SDS011;50299;49.524;8.536;2023-02-04T01:42:09;8.15;;;2.58;;
64052;SDS011;50299;49.524;8.536;2023-02-04T01:44:36;9.32;;;2.60;;
64052;SDS011;50299;49.524;8.536;2023-02-04T01:47:04;8.85;;;2.38;;
64052;SDS011;50299;49.524;8.536;2023-02-04T01:49:31;9.25;;;2.97;;
64052;SDS011;50299;49.524;8.536;2023-02-04T01:51:57;8.60;;;2.28;;
64052;SDS011;50299;49.524;8.536;2023-02-04T01:54:24;13.00;;;3.08;;
64052;SDS011;50299;49.524;8.536;2023-02-04T01:56:51;10.25;;;3.28;;
64052;SDS011;50299;49.524;8.536;2023-02-04T01:59:20;7.22;;;2.53;;
64052;SDS011;50299;49.524;8.536;2023-02-04T02:01:48;8.20;;;2.50;;
64052;SDS011;50299;49.524;8.536;2023-02-04T02:04:17;7.10;;;3.13;;
64052;SDS011;50299;49.524;8.536;2023-02-04T02:06:51;9.73;;;2.80;;
64052;SDS011;50299;49.524;8.536;2023-02-04T02:09:20;9.23;;;2.53;;
64052;SDS011;50299;49.524;8.536;2023-02-04T02:11:47;11.15;;;3.40;;
64052;SDS011;50299;49.524;8.536;2023-02-04T02:14:13;11.68;;;3.05;;
64052;SDS011;50299;49.524;8.536;2023-02-04T02:16:40;9.35;;;2.83;;
64052;SDS011;50299;49.524;8.536;2023-02-04T02:19:06;10.05;;;3.53;;
64052;SDS011;50299;49.524;8.536;2023-02-04T02:21:40;13.57;;;3.55;;
64052;SDS011;50299;49.524;8.536;2023-02-04T02:24:36;9.52;;;2.60;;
64052;SDS011;50299;49.524;8.536;2023-02-04T02:27:08;10.07;;;2.92;;
64052;SDS011;50299;49.524;8.536;2023-02-04T02:29:36;9.48;;;3.25;;
64052;SDS011;50299;49.524;8.536;2023-02-04T02:32:05;9.15;;;2.83;;
64052;SDS011;50299;49.524;8.536;2023-02-04T02:34:33;10.93;;;2.95;;
64052;SDS011;50299;49.524;8.536;2023-02-04T02:37:00;7.53;;;3.38;;
64052;SDS011;50299;49.524;8.536;2023-02-04T02:39:28;9.38;;;3.72;;
64052;SDS011;50299;49.524;8.536;2023-02-04T02:41:55;8.32;;;2.70;;
64052;SDS011;50299;49.524;8.536;2023-02-04T02:44:22;5.85;;;2.78;;
64052;SDS011;50299;49.524;8.536;2023-02-04T02:46:50;8.68;;;2.20;;
64052;SDS011;50299;49.524;8.536;2023-02-04T02:49:17;9.63;;;3.78;;
64052;SDS011;50299;49.524;8.536;2023-02-04T02:51:45;8.38;;;2.85;;
64052;SDS011;50299;49.524;8.536;2023-02-04T02:56:53;9.63;;;3.42;;
64052;SDS011;50299;49.524;8.536;2023-02-04T02:59:21;10.80;;;3.83;;
64052;SDS011;50299;49.524;8.536;2023-02-04T03:01:50;9.23;;;2.78;;
64052;SDS011;50299;49.524;8.536;2023-02-04T03:04:19;11.82;;;3.03;;
64052;SDS011;50299;49.524;8.536;2023-02-04T03:06:47;10.75;;;3.00;;
64052;SDS011;50299;49.524;8.536;2023-02-04T03:09:14;4.82;;;2.70;;
64052;SDS011;50299;49.524;8.536;2023-02-04T03:11:40;11.60;;;3.25;;
64052;SDS011;50299;49.524;8.536;2023-02-04T03:14:07;11.25;;;2.97;;
64052;SDS011;50299;49.524;8.536;2023-02-04T03:16:34;12.75;;;3.47;;
64052;SDS011;50299;49.524;8.536;2023-02-04T03:19:03;10.95;;;2.97;;
64052;SDS011;50299;49.524;8.536;2023-02-04T03:21:31;10.70;;;3.17;;
64052;SDS011;50299;49.524;8.536;2023-02-04T03:23:58;12.90;;;3.67;;
64052;SDS011;50299;49.524;8.536;2023-02-04T03:26:25;8.70;;;3.30;;
64052;SDS011;50299;49.524;8.536;2023-02-04T03:28:52;10.93;;;3.22;;
64052;SDS011;50299;49.524;8.536;2023-02-04T03:31:19;12.18;;;4.28;;
64052;SDS011;50299;49.524;8.536;2023-02-04T03:33:46;10.25;;;3.00;;
64052;SDS011;50299;49.524;8.536;2023-02-04T03:36:13;8.00;;;3.00;;
64052;SDS011;50299;49.524;8.536;2023-02-04T03:38:39;11.93;;;3.03;;
64052;SDS011;50299;49.524;8.536;2023-02-04T03:41:06;13.57;;;3.60;;
64052;SDS011;50299;49.524;8.536;2023-02-04T03:43:32;9.63;;;3.53;;
64052;SDS011;50299;49.524;8.536;2023-02-04T03:46:05;12.35;;;3.45;;
64052;SDS011;50299;49.524;8.536;2023-02-04T03:48:31;12.38;;;3.75;;
64052;SDS011;50299;49.524;8.536;2023-02-04T03:50:58;8.85;;;3.28;;
64052;SDS011;50299;49.524;8.536;2023-02-04T03:53:27;9.25;;;3.17;;
64052;SDS011;50299;49.524;8.536;2023-02-04T03:55:54;10.82;;;3.00;;
64052;SDS011;50299;49.524;8.536;2023-02-04T03:58:20;10.98;;;2.70;;
64052;SDS011;50299;49.524;8.536;2023-02-04T04:00:46;7.82;;;3.13;;
64052;SDS011;50299;49.524;8.536;2023-02-04T04:03:13;7.45;;;3.17;;
64052;SDS011;50299;49.524;8.536;2023-02-04T04:05:39;9.48;;;3.40;;
64052;SDS011;50299;49.524;8.536;2023-02-04T04:08:06;5.95;;;2.58;;
64052;SDS011;50299;49.524;8.536;2023-02-04T04:10:32;9.10;;;2.55;;
64052;SDS011;50299;49.524;8.536;2023-02-04T04:12:59;10.23;;;2.72;;
64052;SDS011;50299;49.524;8.536;2023-02-04T04:15:25;10.20;;;3.92;;
64052;SDS011;50299;49.524;8.536;2023-02-04T04:17:52;8.40;;;2.90;;
64052;SDS011;50299;49.524;8.536;2023-02-04T04:20:18;9.85;;;3.22;;
64052;SDS011;50299;49.524;8.536;2023-02-04T04:22:45;11.35;;;3.63;;
64052;SDS011;50299;49.524;8.536;2023-02-04T04:25:11;10.80;;;2.72;;
64052;SDS011;50299;49.524;8.536;2023-02-04T04:27:37;9.13;;;3.45;;
64052;SDS011;50299;49.524;8.536;2023-02-04T04:30:04;10.07;;;2.88;;
64052;SDS011;50299;49.524;8.536;2023-02-04T04:32:30;9.48;;;3.42;;
64052;SDS011;50299;49.524;8.536;2023-02-04T04:34:57;9.77;;;2.78;;
64052;SDS011;50299;49.524;8.536;2023-02-04T04:37:23;10.98;;;3.58;;
64052;SDS011;50299;49.524;8.536;2023-02-04T04:39:50;7.82;;;3.63;;
64052;SDS011;50299;49.524;8.536;2023-02-04T04:42:16;11.40;;;3.05;;
64052;SDS011;50299;49.524;8.536;2023-02-04T04:44:43;11.88;;;3.53;;
64052;SDS011;50299;49.524;8.536;2023-02-04T04:47:09;8.07;;;3.15;;
64052;SDS011;50299;49.524;8.536;2023-02-04T04:49:35;9.38;;;2.95;;
64052;SDS011;50299;49.524;8.536;2023-02-04T04:52:02;10.00;;;3.58;;
64052;SDS011;50299;49.524;8.536;2023-02-04T04:54:28;14.32;;;3.28;;
64052;SDS011;50299;49.524;8.536;2023-02-04T04:56:55;9.45;;;3.63;;
64052;SDS011;50299;49.524;8.536;2023-02-04T04:59:21;9.60;;;4.53;;
64052;SDS011;50299;49.524;8.536;2023-02-04T05:01:47;13.07;;;3.35;;
64052;SDS011;50299;49.524;8.536;2023-02-04T05:04:14;10.23;;;3.72;;
64052;SDS011;50299;49.524;8.536;2023-02-04T05:06:40;12.88;;;3.60;;
64052;SDS011;50299;49.524;8.536;2023-02-04T05:09:07;9.23;;;3.40;;
64052;SDS011;50299;49.524;8.536;2023-02-04T05:11:34;11.77;;;3.78;;
64052;SDS011;50299;49.524;8.536;2023-02-04T05:14:01;10.68;;;4.28;;
64052;SDS011;50299;49.524;8.536;2023-02-04T05:16:27;7.28;;;3.40;;
64052;SDS011;50299;49.524;8.536;2023-02-04T05:18:54;9.90;;;3.15;;
64052;SDS011;50299;49.524;8.536;2023-02-04T05:21:20;12.15;;;3.28;;
64052;SDS011;50299;49.524;8.536;2023-02-04T05:23:46;9.35;;;3.45;;
64052;SDS011;50299;49.524;8.536;2023-02-04T05:26:13;11.18;;;3.50;;
64052;SDS011;50299;49.524;8.536;2023-02-04T05:28:54;10.38;;;3.45;;
64052;SDS011;50299;49.524;8.536;2023-02-04T05:31:20;12.15;;;3.47;;
64052;SDS011;50299;49.524;8.536;2023-02-04T05:33:47;7.30;;;3.40;;
64052;SDS011;50299;49.524;8.536;2023-02-04T05:36:13;9.93;;;4.05;;
64052;SDS011;50299;49.524;8.536;2023-02-04T05:38:40;9.15;;;3.35;;
64052;SDS011;50299;49.524;8.536;2023-02-04T05:41:06;9.93;;;4.95;;
64052;SDS011;50299;49.524;8.536;2023-02-04T05:43:33;9.25;;;3.42;;
64052;SDS011;50299;49.524;8.536;2023-02-04T05:46:00;9.35;;;3.78;;
64052;SDS011;50299;49.524;8.536;2023-02-04T05:48:27;10.63;;;4.20;;
64052;SDS011;50299;49.524;8.536;2023-02-04T05:50:54;9.50;;;3.47;;
64052;SDS011;50299;49.524;8.536;2023-02-04T05:53:20;9.75;;;3.10;;
64052;SDS011;50299;49.524;8.536;2023-02-04T05:55:47;13.68;;;5.47;;
64052;SDS011;50299;49.524;8.536;2023-02-04T05:58:14;8.27;;;3.88;;
64052;SDS011;50299;49.524;8.536;2023-02-04T06:00:42;9.35;;;3.58;;
64052;SDS011;50299;49.524;8.536;2023-02-04T06:03:09;10.55;;;4.65;;
64052;SDS011;50299;49.524;8.536;2023-02-04T06:05:35;11.35;;;3.45;;
64052;SDS011;50299;49.524;8.536;2023-02-04T06:08:02;8.02;;;3.90;;
64052;SDS011;50299;49.524;8.536;2023-02-04T06:10:28;8.75;;;3.50;;
64052;SDS011;50299;49.524;8.536;2023-02-04T06:12:56;9.43;;;3.17;;
64052;SDS011;50299;49.524;8.536;2023-02-04T06:15:22;7.05;;;3.35;;
64052;SDS011;50299;49.524;8.536;2023-02-04T06:17:48;8.48;;;3.83;;
64052;SDS011;50299;49.524;8.536;2023-02-04T06:20:15;11.93;;;3.33;;
64052;SDS011;50299;49.524;8.536;2023-02-04T06:22:41;7.80;;;3.28;;
64052;SDS011;50299;49.524;8.536;2023-02-04T06:25:08;6.35;;;4.60;;
64052;SDS011;50299;49.524;8.536;2023-02-04T06:27:34;11.43;;;3.92;;
64052;SDS011;50299;49.524;8.536;2023-02-04T06:30:00;8.80;;;3.75;;
64052;SDS011;50299;49.524;8.536;2023-02-04T06:32:27;8.27;;;4.15;;
64052;SDS011;50299;49.524;8.536;2023-02-04T06:34:53;7.93;;;3.83;;
64052;SDS011;50299;49.524;8.536;2023-02-04T06:37:20;9.30;;;4.20;;
64052;SDS011;50299;49.524;8.536;2023-02-04T06:42:15;13.32;;;3.78;;
64052;SDS011;50299;49.524;8.536;2023-02-04T06:44:42;7.03;;;3.35;;
64052;SDS011;50299;49.524;8.536;2023-02-04T06:47:08;10.15;;;4.53;;
64052;SDS011;50299;49.524;8.536;2023-02-04T06:49:34;12.65;;;4.80;;
64052;SDS011;50299;49.524;8.536;2023-02-04T06:52:01;9.50;;;3.78;;
64052;SDS011;50299;49.524;8.536;2023-02-04T06:54:27;12.23;;;5.55;;
64052;SDS011;50299;49.524;8.536;2023-02-04T06:56:54;7.43;;;3.75;;
64052;SDS011;50299;49.524;8.536;2023-02-04T06:59:20;11.30;;;4.07;;
64052;SDS011;50299;49.524;8.536;2023-02-04T07:01:46;8.70;;;3.85;;
64052;SDS011;50299;49.524;8.536;2023-02-04T07:04:13;9.68;;;3.80;;
64052;SDS011;50299;49.524;8.536;2023-02-04T07:06:39;7.20;;;3.75;;
64052;SDS011;50299;49.524;8.536;2023-02-04T07:09:05;6.80;;;3.28;;
64052;SDS011;50299;49.524;8.536;2023-02-04T07:11:32;9.85;;;4.43;;
64052;SDS011;50299;49.524;8.536;2023-02-04T07:13:58;15.30;;;4.15;;
64052;SDS011;50299;49.524;8.536;2023-02-04T07:16:25;8.70;;;4.15;;
64052;SDS011;50299;49.524;8.536;2023-02-04T07:18:51;8.00;;;4.43;;
64052;SDS011;50299;49.524;8.536;2023-02-04T07:21:17;10.98;;;4.53;;
64052;SDS011;50299;49.524;8.536;2023-02-04T07:23:44;18.15;;;4.97;;
64052;SDS011;50299;49.524;8.536;2023-02-04T07:26:10;10.90;;;4.20;;
64052;SDS011;50299;49.524;8.536;2023-02-04T07:28:36;8.45;;;4.45;;
64052;SDS011;50299;49.524;8.536;2023-02-04T07:31:03;4.95;;;3.60;;
64052;SDS011;50299;49.524;8.536;2023-02-04T07:33:29;9.10;;;3.40;;
64052;SDS011;50299;49.524;8.536;2023-02-04T07:35:56;8.25;;;3.63;;
64052;SDS011;50299;49.524;8.536;2023-02-04T07:38:22;9.40;;;4.10;;
64052;SDS011;50299;49.524;8.536;2023-02-04T07:40:48;6.53;;;3.13;;
64052;SDS011;50299;49.524;8.536;2023-02-04T07:43:15;8.70;;;3.83;;
64052;SDS011;50299;49.524;8.536;2023-02-04T07:45:41;14.48;;;4.55;;
64052;SDS011;50299;49.524;8.536;2023-02-04T07:48:08;11.52;;;5.57;;
64052;SDS011;50299;49.524;8.536;2023-02-04T07:50:35;10.13;;;4.07;;
64052;SDS011;50299;49.524;8.536;2023-02-04T07:53:02;7.95;;;3.72;;
64052;SDS011;50299;49.524;8.536;2023-02-04T07:55:29;9.93;;;3.75;;
64052;SDS011;50299;49.524;8.536;2023-02-04T07:57:55;8.48;;;4.13;;
64052;SDS011;50299;49.524;8.536;2023-02-04T08:00:21;10.93;;;3.80;;
64052;SDS011;50299;49.524;8.536;2023-02-04T08:02:48;7.15;;;3.53;;
64052;SDS011;50299;49.524;8.536;2023-02-04T08:05:14;8.98;;;4.15;;
64052;SDS011;50299;49.524;8.536;2023-02-04T08:07:41;14.43;;;4.10;;
64052;SDS011;50299;49.524;8.536;2023-02-04T08:10:08;6.90;;;3.70;;
64052;SDS011;50299;49.524;8.536;2023-02-04T08:12:35;6.88;;;3.45;;
64052;SDS011;50299;49.524;8.536;2023-02-04T08:15:02;7.53;;;4.40;;
64052;SDS011;50299;49.524;8.536;2023-02-04T08:17:29;12.77;;;4.20;;
64052;SDS011;50299;49.524;8.536;2023-02-04T08:19:59;9.68;;;3.17;;
64052;SDS011;50299;49.524;8.536;2023-02-04T08:22:25;11.45;;;3.65;;
64052;SDS011;50299;49.524;8.536;2023-02-04T08:24:54;11.70;;;5.30;;
64052;SDS011;50299;49.524;8.536;2023-02-04T08:27:22;9.20;;;3.78;;
64052;SDS011;50299;49.524;8.536;2023-02-04T08:29:49;8.15;;;4.30;;
64052;SDS011;50299;49.524;8.536;2023-02-04T08:32:15;8.32;;;4.38;;
64052;SDS011;50299;49.524;8.536;2023-02-04T08:34:42;14.65;;;4.70;;
64052;SDS011;50299;49.524;8.536;2023-02-04T08:37:09;15.02;;;4.00;;
64052;SDS011;50299;49.524;8.536;2023-02-04T08:39:35;13.05;;;4.75;;
64052;SDS011;50299;49.524;8.536;2023-02-04T08:42:03;13.35;;;5.47;;
64052;SDS011;50299;49.524;8.536;2023-02-04T08:44:30;9.20;;;4.00;;
64052;SDS011;50299;49.524;8.536;2023-02-04T08:46:56;13.57;;;4.32;;
64052;SDS011;50299;49.524;8.536;2023-02-04T08:49:23;13.10;;;4.28;;
64052;SDS011;50299;49.524;8.536;2023-02-04T08:51:49;16.02;;;4.10;;
64052;SDS011;50299;49.524;8.536;2023-02-04T08:54:16;17.05;;;4.20;;
64052;SDS011;50299;49.524;8.536;2023-02-04T08:56:43;13.38;;;3.67;;
64052;SDS011;50299;49.524;8.536;2023-02-04T08:59:09;15.43;;;4.30;;
64052;SDS011;50299;49.524;8.536;2023-02-04T09:01:36;14.45;;;5.20;;
64052;SDS011;50299;49.524;8.536;2023-02-04T09:04:02;19.55;;;4.05;;
64052;SDS011;50299;49.524;8.536;2023-02-04T09:06:29;12.70;;;4.07;;
64052;SDS011;50299;49.524;8.536;2023-02-04T09:08:58;14.18;;;4.97;;
64052;SDS011;50299;49.524;8.536;2023-02-04T09:11:25;8.60;;;3.40;;
64052;SDS011;50299;49.524;8.536;2023-02-04T09:13:52;18.65;;;3.97;;
64052;SDS011;50299;49.524;8.536;2023-02-04T09:16:18;14.10;;;3.80;;
64052;SDS011;50299;49.524;8.536;2023-02-04T09:18:44;13.98;;;4.45;;
64052;SDS011;50299;49.524;8.536;2023-02-04T09:21:11;15.18;;;4.65;;
64052;SDS011;50299;49.524;8.536;2023-02-04T09:23:37;15.63;;;4.65;;
64052;SDS011;50299;49.524;8.536;2023-02-04T09:26:03;12.40;;;4.05;;
64052;SDS011;50299;49.524;8.536;2023-02-04T09:28:31;15.25;;;3.72;;
64052;SDS011;50299;49.524;8.536;2023-02-04T09:30:57;14.07;;;4.35;;
64052;SDS011;50299;49.524;8.536;2023-02-04T09:33:25;11.82;;;4.18;;
64052;SDS011;50299;49.524;8.536;2023-02-04T09:35:51;11.13;;;3.95;;
64052;SDS011;50299;49.524;8.536;2023-02-04T09:38:19;11.02;;;3.47;;
64052;SDS011;50299;49.524;8.536;2023-02-04T09:40:48;18.50;;;4.90;;
64052;SDS011;50299;49.524;8.536;2023-02-04T09:43:23;11.88;;;3.35;;
64052;SDS011;50299;49.524;8.536;2023-02-04T09:45:53;11.65;;;2.85;;
64052;SDS011;50299;49.524;8.536;2023-02-04T09:48:23;11.55;;;3.70;;
64052;SDS011;50299;49.524;8.536;2023-02-04T09:50:50;12.25;;;2.78;;
64052;SDS011;50299;49.524;8.536;2023-02-04T09:53:19;10.95;;;3.03;;
64052;SDS011;50299;49.524;8.536;2023-02-04T09:55:48;13.15;;;3.67;;
64052;SDS011;50299;49.524;8.536;2023-02-04T09:58:20;14.40;;;3.83;;
64052;SDS011;50299;49.524;8.536;2023-02-04T10:00:51;13.30;;;3.47;;
64052;SDS011;50299;49.524;8.536;2023-02-04T10:03:24;11.27;;;3.40;;
64052;SDS011;50299;49.524;8.536;2023-02-04T10:05:51;11.18;;;3.97;;
64052;SDS011;50299;49.524;8.536;2023-02-04T10:08:19;13.27;;;3.42;;
64052;SDS011;50299;49.524;8.536;2023-02-04T10:10:51;11.52;;;3.10;;
64052;SDS011;50299;49.524;8.536;2023-02-04T10:13:23;12.15;;;2.88;;
64052;SDS011;50299;49.524;8.536;2023-02-04T10:16:00;13.52;;;2.97;;
64052;SDS011;50299;49.524;8.536;2023-02-04T10:18:29;15.40;;;3.42;;
64052;SDS011;50299;49.524;8.536;2023-02-04T10:21:17;9.07;;;2.88;;
64052;SDS011;50299;49.524;8.536;2023-02-04T10:23:47;9.55;;;2.60;;
64052;SDS011;50299;49.524;8.536;2023-02-04T10:26:16;10.35;;;3.00;;
64052;SDS011;50299;49.524;8.536;2023-02-04T10:28:43;15.93;;;3.45;;
64052;SDS011;50299;49.524;8.536;2023-02-04T10:34:13;9.20;;;2.55;;
64052;SDS011;50299;49.524;8.536;2023-02-04T10:36:47;13.85;;;3.90;;
64052;SDS011;50299;49.524;8.536;2023-02-04T10:39:19;13.38;;;3.83;;
64052;SDS011;50299;49.524;8.536;2023-02-04T10:41:53;13.32;;;3.42;;
64052;SDS011;50299;49.524;8.536;2023-02-04T10:44:28;13.63;;;3.50;;
64052;SDS011;50299;49.524;8.536;2023-02-04T10:47:05;13.70;;;3.35;;
64052;SDS011;50299;49.524;8.536;2023-02-04T10:52:23;12.85;;;3.38;;
64052;SDS011;50299;49.524;8.536;2023-02-04T10:54:54;10.27;;;2.83;;
64052;SDS011;50299;49.524;8.536;2023-02-04T10:57:22;12.90;;;3.15;;
64052;SDS011;50299;49.524;8.536;2023-02-04T10:59:56;15.20;;;4.22;;
64052;SDS011;50299;49.524;8.536;2023-02-04T11:05:12;12.90;;;3.58;;
64052;SDS011;50299;49.524;8.536;2023-02-04T11:07:40;11.20;;;2.67;;
64052;SDS011;50299;49.524;8.536;2023-02-04T11:10:50;6.38;;;3.15;;
64052;SDS011;50299;49.524;8.536;2023-02-04T11:13:01;9.23;;;3.25;;
64052;SDS011;50299;49.524;8.536;2023-02-04T11:18:11;14.88;;;3.63;;
64052;SDS011;50299;49.524;8.536;2023-02-04T11:20:55;8.88;;;2.97;;
64052;SDS011;50299;49.524;8.536;2023-02-04T11:31:27;13.98;;;3.17;;
64052;SDS011;50299;49.524;8.536;2023-02-04T11:34:09;12.98;;;2.65;;
64052;SDS011;50299;49.524;8.536;2023-02-04T11:39:16;6.60;;;2.40;;
64052;SDS011;50299;49.524;8.536;2023-02-04T11:41:46;6.65;;;2.67;;
64052;SDS011;50299;49.524;8.536;2023-02-04T11:44:13;5.47;;;2.20;;
64052;SDS011;50299;49.524;8.536;2023-02-04T11:46:41;7.40;;;2.72;;
64052;SDS011;50299;49.524;8.536;2023-02-04T11:49:08;9.48;;;4.20;;
64052;SDS011;50299;49.524;8.536;2023-02-04T11:54:14;8.93;;;2.38;;
64052;SDS011;50299;49.524;8.536;2023-02-04T11:56:44;9.63;;;3.08;;
64052;SDS011;50299;49.524;8.536;2023-02-04T11:59:13;8.43;;;2.67;;
64052;SDS011;50299;49.524;8.536;2023-02-04T12:01:46;8.80;;;2.17;;
64052;SDS011;50299;49.524;8.536;2023-02-04T12:04:22;8.77;;;2.38;;
64052;SDS011;50299;49.524;8.536;2023-02-04T12:06:57;8.00;;;2.47;;
64052;SDS011;50299;49.524;8.536;2023-02-04T12:09:26;7.20;;;2.55;;
64052;SDS011;50299;49.524;8.536;2023-02-04T12:12:03;8.85;;;1.95;;
64052;SDS011;50299;49.524;8.536;2023-02-04T12:14:33;6.80;;;2.28;;
64052;SDS011;50299;49.524;8.536;2023-02-04T12:17:16;5.57;;;2.00;;
64052;SDS011;50299;49.524;8.536;2023-02-04T12:19:44;22.83;;;3.20;;
64052;SDS011;50299;49.524;8.536;2023-02-04T12:22:10;41.67;;;3.75;;
64052;SDS011;50299;49.524;8.536;2023-02-04T12:24:38;9.23;;;2.60;;
64052;SDS011;50299;49.524;8.536;2023-02-04T12:27:04;22.70;;;3.53;;
64052;SDS011;50299;49.524;8.536;2023-02-04T12:29:31;6.32;;;1.95;;
64052;SDS011;50299;49.524;8.536;2023-02-04T12:31:57;7.25;;;2.15;;
64052;SDS011;50299;49.524;8.536;2023-02-04T12:34:23;7.55;;;2.20;;
64052;SDS011;50299;49.524;8.536;2023-02-04T12:36:50;5.70;;;1.77;;
64052;SDS011;50299;49.524;8.536;2023-02-04T12:39:16;13.93;;;2.13;;
64052;SDS011;50299;49.524;8.536;2023-02-04T12:41:42;7.22;;;1.95;;
64052;SDS011;50299;49.524;8.536;2023-02-04T12:44:10;7.50;;;1.77;;
64052;SDS011;50299;49.524;8.536;2023-02-04T12:46:36;5.60;;;2.13;;
64052;SDS011;50299;49.524;8.536;2023-02-04T12:49:03;6.68;;;2.63;;
64052;SDS011;50299;49.524;8.536;2023-02-04T12:51:34;6.85;;;2.00;;
64052;SDS011;50299;49.524;8.536;2023-02-04T12:54:01;8.25;;;2.33;;
64052;SDS011;50299;49.524;8.536;2023-02-04T12:56:27;7.82;;;2.38;;
64052;SDS011;50299;49.524;8.536;2023-02-04T12:58:54;7.22;;;2.05;;
64052;SDS011;50299;49.524;8.536;2023-02-04T13:01:20;7.55;;;2.05;;
64052;SDS011;50299;49.524;8.536;2023-02-04T13:03:47;6.82;;;2.13;;
64052;SDS011;50299;49.524;8.536;2023-02-04T13:06:16;9.50;;;2.88;;
64052;SDS011;50299;49.524;8.536;2023-02-04T13:08:42;8.48;;;2.42;;
64052;SDS011;50299;49.524;8.536;2023-02-04T13:11:09;6.32;;;2.08;;
64052;SDS011;50299;49.524;8.536;2023-02-04T13:13:35;7.63;;;2.30;;
64052;SDS011;50299;49.524;8.536;2023-02-04T13:16:02;5.95;;;2.05;;
64052;SDS011;50299;49.524;8.536;2023-02-04T13:18:28;10.82;;;2.20;;
64052;SDS011;50299;49.524;8.536;2023-02-04T13:20:55;9.27;;;2.45;;
64052;SDS011;50299;49.524;8.536;2023-02-04T13:23:21;8.52;;;2.05;;
64052;SDS011;50299;49.524;8.536;2023-02-04T13:25:47;4.47;;;1.95;;
64052;SDS011;50299;49.524;8.536;2023-02-04T13:28:14;9.70;;;2.72;;
64052;SDS011;50299;49.524;8.536;2023-02-04T13:30:40;7.85;;;2.17;;
64052;SDS011;50299;49.524;8.536;2023-02-04T13:33:07;10.48;;;2.58;;
64052;SDS011;50299;49.524;8.536;2023-02-04T13:35:33;8.95;;;2.33;;
64052;SDS011;50299;49.524;8.536;2023-02-04T13:38:00;9.10;;;2.45;;
64052;SDS011;50299;49.524;8.536;2023-02-04T13:40:30;9.32;;;2.05;;
64052;SDS011;50299;49.524;8.536;2023-02-04T13:42:56;6.55;;;1.85;;
64052;SDS011;50299;49.524;8.536;2023-02-04T13:45:22;5.13;;;2.13;;
64052;SDS011;50299;49.524;8.536;2023-02-04T13:47:49;8.77;;;2.75;;
64052;SDS011;50299;49.524;8.536;2023-02-04T13:50:17;12.07;;;2.38;;
64052;SDS011;50299;49.524;8.536;2023-02-04T13:52:43;12.13;;;3.47;;
64052;SDS011;50299;49.524;8.536;2023-02-04T13:55:10;9.88;;;2.47;;
64052;SDS011;50299;49.524;8.536;2023-02-04T13:57:36;8.65;;;2.65;;
64052;SDS011;50299;49.524;8.536;2023-02-04T14:00:03;7.30;;;3.00;;
64052;SDS011;50299;49.524;8.536;2023-02-04T14:02:32;7.93;;;2.90;;
64052;SDS011;50299;49.524;8.536;2023-02-04T14:04:58;4.82;;;1.85;;
64052;SDS011;50299;49.524;8.536;2023-02-04T14:07:25;9.15;;;2.97;;
64052;SDS011;50299;49.524;8.536;2023-02-04T14:09:51;8.40;;;2.22;;
64052;SDS011;50299;49.524;8.536;2023-02-04T14:12:18;7.53;;;2.72;;
64052;SDS011;50299;49.524;8.536;2023-02-04T14:14:45;9.27;;;2.80;;
64052;SDS011;50299;49.524;8.536;2023-02-04T14:17:11;8.93;;;2.08;;
64052;SDS011;50299;49.524;8.536;2023-02-04T14:19:38;7.68;;;2.88;;
64052;SDS011;50299;49.524;8.536;2023-02-04T14:22:04;7.22;;;2.28;;
64052;SDS011;50299;49.524;8.536;2023-02-04T14:24:31;6.88;;;2.55;;
64052;SDS011;50299;49.524;8.536;2023-02-04T14:26:57;9.63;;;2.20;;
64052;SDS011;50299;49.524;8.536;2023-02-04T14:29:24;7.43;;;2.63;;
64052;SDS011;50299;49.524;8.536;2023-02-04T14:31:50;8.57;;;2.40;;
64052;SDS011;50299;49.524;8.536;2023-02-04T14:34:17;5.50;;;2.20;;
64052;SDS011;50299;49.524;8.536;2023-02-04T14:36:43;6.95;;;2.13;;
64052;SDS011;50299;49.524;8.536;2023-02-04T14:39:09;8.30;;;2.95;;
64052;SDS011;50299;49.524;8.536;2023-02-04T14:41:39;8.77;;;2.28;;
64052;SDS011;50299;49.524;8.536;2023-02-04T14:44:05;6.45;;;2.17;;
64052;SDS011;50299;49.524;8.536;2023-02-04T14:46:31;6.75;;;2.13;;
64052;SDS011;50299;49.524;8.536;2023-02-04T14:48:58;10.95;;;2.30;;
64052;SDS011;50299;49.524;8.536;2023-02-04T14:51:24;6.38;;;2.10;;
64052;SDS011;50299;49.524;8.536;2023-02-04T14:53:50;6.40;;;2.13;;
64052;SDS011;50299;49.524;8.536;2023-02-04T14:56:19;7.55;;;2.15;;
64052;SDS011;50299;49.524;8.536;2023-02-04T14:58:46;7.63;;;2.10;;
64052;SDS011;50299;49.524;8.536;2023-02-04T15:01:12;8.57;;;2.40;;
64052;SDS011;50299;49.524;8.536;2023-02-04T15:03:39;6.60;;;2.00;;
64052;SDS011;50299;49.524;8.536;2023-02-04T15:06:05;7.70;;;2.45;;
64052;SDS011;50299;49.524;8.536;2023-02-04T15:08:35;6.30;;;2.00;;
64052;SDS011;50299;49.524;8.536;2023-02-04T15:13:28;9.05;;;2.03;;
64052;SDS011;50299;49.524;8.536;2023-02-04T15:15:54;9.82;;;2.75;;
64052;SDS011;50299;49.524;8.536;2023-02-04T15:18:20;12.45;;;2.45;;
64052;SDS011;50299;49.524;8.536;2023-02-04T15:20:47;11.70;;;2.95;;